sensor_id;sensor_type;location;lat;lon;timestamp;temperature;humidity
53926;DHT22;39836;52.754;6.866;2023-11-19T03:54:56;13.10;86.00
53926;DHT22;39836;52.754;6.866;2023-11-19T03:57:30;13.10;86.00
53926;DHT22;39836;52.754;6.866;2023-11-19T03:59:56;13.10;86.00
53926;DHT22;39836;52.754;6.866;2023-11-19T04:02:24;13.10;85.90
53926;DHT22;39836;52.754;6.866;2023-11-19T04:04:53;13.00;85.80
53926;DHT22;39836;52.754;6.866;2023-11-19T04:07:20;13.00;85.80
53926;DHT22;39836;52.754;6.866;2023-11-19T04:09:45;13.00;85.70
53926;DHT22;39836;52.754;6.866;2023-11-19T04:12:12;12.90;85.70
53926;DHT22;39836;52.754;6.866;2023-11-19T04:14:37;12.90;85.70
53926;DHT22;39836;52.754;6.866;2023-11-19T04:17:03;13.00;85.70
53926;DHT22;39836;52.754;6.866;2023-11-19T04:19:29;12.90;85.60
53926;DHT22;39836;52.754;6.866;2023-11-19T04:21:55;12.90;85.60
53926;DHT22;39836;52.754;6.866;2023-11-19T04:24:20;12.80;85.50
53926;DHT22;39836;52.754;6.866;2023-11-19T04:26:46;12.80;85.50
53926;DHT22;39836;52.754;6.866;2023-11-19T04:29:14;12.80;85.50
53926;DHT22;39836;52.754;6.866;2023-11-19T04:31:43;12.80;85.50
53926;DHT22;39836;52.754;6.866;2023-11-19T04:34:12;12.80;85.40
53926;DHT22;39836;52.754;6.866;2023-11-19T04:36:38;12.90;85.40
53926;DHT22;39836;52.754;6.866;2023-11-19T04:39:04;12.90;85.30
53926;DHT22;39836;52.754;6.866;2023-11-19T04:41:35;12.90;85.30
53926;DHT22;39836;52.754;6.866;2023-11-19T04:44:02;13.00;85.30
53926;DHT22;39836;52.754;6.866;2023-11-19T04:46:27;13.00;85.30
53926;DHT22;39836;52.754;6.866;2023-11-19T04:48:53;13.00;85.30
53926;DHT22;39836;52.754;6.866;2023-11-19T04:51:19;13.00;85.30
53926;DHT22;39836;52.754;6.866;2023-11-19T04:53:45;13.00;85.10
53926;DHT22;39836;52.754;6.866;2023-11-19T04:56:11;13.00;85.10
53926;DHT22;39836;52.754;6.866;2023-11-19T04:58:37;13.00;85.10
53926;DHT22;39836;52.754;6.866;2023-11-19T05:01:04;13.00;85.10
53926;DHT22;39836;52.754;6.866;2023-11-19T05:03:31;13.00;85.00
53926;DHT22;39836;52.754;6.866;2023-11-19T05:05:57;12.90;85.00
53926;DHT22;39836;52.754;6.866;2023-11-19T05:08:23;12.90;84.90
53926;DHT22;39836;52.754;6.866;2023-11-19T05:10:48;12.90;85.00
53926;DHT22;39836;52.754;6.866;2023-11-19T05:13:14;12.80;85.00
53926;DHT22;39836;52.754;6.866;2023-11-19T05:15:40;12.90;85.10
53926;DHT22;39836;52.754;6.866;2023-11-19T05:18:06;12.80;85.00
53926;DHT22;39836;52.754;6.866;2023-11-19T05:20:32;12.80;85.00
53926;DHT22;39836;52.754;6.866;2023-11-19T05:23:15;12.80;85.00
53926;DHT22;39836;52.754;6.866;2023-11-19T05:26:41;12.80;84.90
53926;DHT22;39836;52.754;6.866;2023-11-19T05:30:04;12.80;84.90
53926;DHT22;39836;52.754;6.866;2023-11-19T05:32:34;12.80;85.00
53926;DHT22;39836;52.754;6.866;2023-11-19T05:35:09;12.80;84.90
53926;DHT22;39836;52.754;6.866;2023-11-19T05:37:46;12.70;84.90
53926;DHT22;39836;52.754;6.866;2023-11-19T05:40:15;12.80;84.90
